sensor_id;sensor_type;location;lat;lon;timestamp;P1;durP1;ratioP1;P2;durP2;ratioP2
51824;SDS011;37879;52.986;6.282;2022-07-22T00:00:25;11.73;;;3.60;;
51824;SDS011;37879;52.986;6.282;2022-07-22T00:02:51;9.48;;;2.88;;
51824;SDS011;37879;52.986;6.282;2022-07-22T00:05:17;10.32;;;3.03;;
51824;SDS011;37879;52.986;6.282;2022-07-22T00:07:43;14.15;;;3.10;;
51824;SDS011;37879;52.986;6.282;2022-07-22T00:10:09;10.63;;;3.67;;
51824;SDS011;37879;52.986;6.282;2022-07-22T00:12:36;11.13;;;2.80;;
51824;SDS011;37879;52.986;6.282;2022-07-22T00:15:02;8.48;;;2.58;;
51824;SDS011;37879;52.986;6.282;2022-07-22T00:17:29;8.45;;;2.47;;
51824;SDS011;37879;52.986;6.282;2022-07-22T00:19:55;7.22;;;2.30;;
51824;SDS011;37879;52.986;6.282;2022-07-22T00:22:21;11.52;;;3.25;;
51824;SDS011;37879;52.986;6.282;2022-07-22T00:24:47;8.18;;;2.60;;
51824;SDS011;37879;52.986;6.282;2022-07-22T00:27:13;8.32;;;2.97;;
51824;SDS011;37879;52.986;6.282;2022-07-22T00:29:39;5.50;;;2.45;;
51824;SDS011;37879;52.986;6.282;2022-07-22T00:32:05;7.35;;;3.00;;
51824;SDS011;37879;52.986;6.282;2022-07-22T00:34:31;8.60;;;2.40;;
51824;SDS011;37879;52.986;6.282;2022-07-22T00:36:57;8.05;;;3.25;;
51824;SDS011;37879;52.986;6.282;2022-07-22T00:39:24;8.30;;;2.17;;
51824;SDS011;37879;52.986;6.282;2022-07-22T00:41:50;7.20;;;2.50;;
51824;SDS011;37879;52.986;6.282;2022-07-22T00:44:16;7.35;;;2.40;;
51824;SDS011;37879;52.986;6.282;2022-07-22T00:46:42;6.93;;;2.60;;
51824;SDS011;37879;52.986;6.282;2022-07-22T00:49:08;6.20;;;2.28;;
51824;SDS011;37879;52.986;6.282;2022-07-22T00:51:35;8.15;;;2.03;;
51824;SDS011;37879;52.986;6.282;2022-07-22T00:54:03;5.40;;;2.25;;
51824;SDS011;37879;52.986;6.282;2022-07-22T00:56:29;4.22;;;2.17;;
51824;SDS011;37879;52.986;6.282;2022-07-22T00:58:56;6.20;;;2.08;;
51824;SDS011;37879;52.986;6.282;2022-07-22T01:01:23;5.97;;;2.20;;
51824;SDS011;37879;52.986;6.282;2022-07-22T01:03:49;5.28;;;2.13;;
51824;SDS011;37879;52.986;6.282;2022-07-22T01:06:15;6.22;;;2.30;;
51824;SDS011;37879;52.986;6.282;2022-07-22T01:08:41;26.45;;;4.25;;
51824;SDS011;37879;52.986;6.282;2022-07-22T01:11:12;6.63;;;2.00;;
51824;SDS011;37879;52.986;6.282;2022-07-22T01:13:38;5.40;;;1.73;;
51824;SDS011;37879;52.986;6.282;2022-07-22T01:16:05;3.50;;;1.45;;
51824;SDS011;37879;52.986;6.282;2022-07-22T01:18:32;7.63;;;2.65;;
51824;SDS011;37879;52.986;6.282;2022-07-22T01:20:58;6.22;;;2.08;;
51824;SDS011;37879;52.986;6.282;2022-07-22T01:23:24;7.82;;;2.00;;
51824;SDS011;37879;52.986;6.282;2022-07-22T01:25:51;12.30;;;3.03;;
51824;SDS011;37879;52.986;6.282;2022-07-22T01:28:17;3.45;;;1.83;;
51824;SDS011;37879;52.986;6.282;2022-07-22T01:30:43;8.15;;;2.35;;
51824;SDS011;37879;52.986;6.282;2022-07-22T01:33:09;5.70;;;2.20;;
51824;SDS011;37879;52.986;6.282;2022-07-22T01:35:35;6.40;;;1.83;;
51824;SDS011;37879;52.986;6.282;2022-07-22T01:38:01;7.10;;;2.33;;
51824;SDS011;37879;52.986;6.282;2022-07-22T01:40:27;7.32;;;2.03;;
51824;SDS011;37879;52.986;6.282;2022-07-22T01:42:53;7.88;;;2.53;;
51824;SDS011;37879;52.986;6.282;2022-07-22T01:45:20;10.38;;;1.63;;
51824;SDS011;37879;52.986;6.282;2022-07-22T01:47:46;6.28;;;2.10;;
51824;SDS011;37879;52.986;6.282;2022-07-22T01:50:12;4.90;;;1.63;;
51824;SDS011;37879;52.986;6.282;2022-07-22T01:52:38;6.70;;;2.25;;
51824;SDS011;37879;52.986;6.282;2022-07-22T01:55:05;3.55;;;1.55;;
51824;SDS011;37879;52.986;6.282;2022-07-22T01:57:32;9.13;;;2.17;;
51824;SDS011;37879;52.986;6.282;2022-07-22T01:59:58;7.18;;;1.92;;
51824;SDS011;37879;52.986;6.282;2022-07-22T02:02:24;7.05;;;2.33;;
51824;SDS011;37879;52.986;6.282;2022-07-22T02:04:50;7.35;;;2.63;;
51824;SDS011;37879;52.986;6.282;2022-07-22T02:07:16;5.30;;;1.67;;
51824;SDS011;37879;52.986;6.282;2022-07-22T02:09:42;4.32;;;1.85;;
51824;SDS011;37879;52.986;6.282;2022-07-22T02:12:08;7.30;;;2.38;;
51824;SDS011;37879;52.986;6.282;2022-07-22T02:14:34;5.18;;;1.73;;
51824;SDS011;37879;52.986;6.282;2022-07-22T02:17:00;6.13;;;2.03;;
51824;SDS011;37879;52.986;6.282;2022-07-22T02:19:26;7.88;;;2.72;;
51824;SDS011;37879;52.986;6.282;2022-07-22T02:21:53;4.18;;;2.17;;
51824;SDS011;37879;52.986;6.282;2022-07-22T02:24:19;7.32;;;2.85;;
51824;SDS011;37879;52.986;6.282;2022-07-22T02:26:45;7.18;;;1.83;;
51824;SDS011;37879;52.986;6.282;2022-07-22T02:29:11;8.15;;;2.00;;
51824;SDS011;37879;52.986;6.282;2022-07-22T02:31:37;7.28;;;2.30;;
51824;SDS011;37879;52.986;6.282;2022-07-22T02:34:03;6.57;;;2.17;;
51824;SDS011;37879;52.986;6.282;2022-07-22T02:36:30;6.03;;;1.75;;
51824;SDS011;37879;52.986;6.282;2022-07-22T02:38:56;5.78;;;2.05;;
51824;SDS011;37879;52.986;6.282;2022-07-22T02:41:22;10.93;;;2.47;;
51824;SDS011;37879;52.986;6.282;2022-07-22T02:43:48;6.28;;;1.90;;
51824;SDS011;37879;52.986;6.282;2022-07-22T02:46:15;7.45;;;2.13;;
51824;SDS011;37879;52.986;6.282;2022-07-22T02:48:42;9.18;;;2.40;;
51824;SDS011;37879;52.986;6.282;2022-07-22T02:51:08;6.75;;;1.73;;
51824;SDS011;37879;52.986;6.282;2022-07-22T02:53:34;4.22;;;1.88;;
51824;SDS011;37879;52.986;6.282;2022-07-22T02:56:00;7.43;;;1.75;;
51824;SDS011;37879;52.986;6.282;2022-07-22T02:58:26;4.25;;;1.83;;
51824;SDS011;37879;52.986;6.282;2022-07-22T03:00:52;9.60;;;1.85;;
51824;SDS011;37879;52.986;6.282;2022-07-22T03:03:18;6.40;;;2.00;;
51824;SDS011;37879;52.986;6.282;2022-07-22T03:05:44;4.72;;;1.55;;
51824;SDS011;37879;52.986;6.282;2022-07-22T03:08:10;4.32;;;2.10;;
51824;SDS011;37879;52.986;6.282;2022-07-22T03:10:36;7.97;;;2.50;;
51824;SDS011;37879;52.986;6.282;2022-07-22T03:13:03;7.05;;;1.88;;
51824;SDS011;37879;52.986;6.282;2022-07-22T03:15:29;7.15;;;2.13;;
51824;SDS011;37879;52.986;6.282;2022-07-22T03:17:55;4.45;;;1.85;;
51824;SDS011;37879;52.986;6.282;2022-07-22T03:20:21;5.07;;;1.85;;
51824;SDS011;37879;52.986;6.282;2022-07-22T03:22:47;5.32;;;1.65;;
51824;SDS011;37879;52.986;6.282;2022-07-22T03:25:13;6.90;;;2.22;;
51824;SDS011;37879;52.986;6.282;2022-07-22T03:27:39;3.75;;;1.38;;
51824;SDS011;37879;52.986;6.282;2022-07-22T03:30:05;7.88;;;2.00;;
51824;SDS011;37879;52.986;6.282;2022-07-22T03:32:32;5.03;;;1.73;;
51824;SDS011;37879;52.986;6.282;2022-07-22T03:34:58;4.63;;;2.15;;
51824;SDS011;37879;52.986;6.282;2022-07-22T03:37:24;5.80;;;2.35;;
51824;SDS011;37879;52.986;6.282;2022-07-22T03:39:50;6.35;;;1.90;;
51824;SDS011;37879;52.986;6.282;2022-07-22T03:42:16;5.18;;;1.55;;
51824;SDS011;37879;52.986;6.282;2022-07-22T03:44:42;4.45;;;2.08;;
51824;SDS011;37879;52.986;6.282;2022-07-22T03:47:08;6.82;;;1.75;;
51824;SDS011;37879;52.986;6.282;2022-07-22T03:49:35;2.60;;;1.35;;
51824;SDS011;37879;52.986;6.282;2022-07-22T03:52:01;5.45;;;2.00;;
51824;SDS011;37879;52.986;6.282;2022-07-22T03:54:27;5.80;;;1.67;;
51824;SDS011;37879;52.986;6.282;2022-07-22T03:56:53;4.93;;;2.03;;
51824;SDS011;37879;52.986;6.282;2022-07-22T03:59:19;4.78;;;1.85;;
51824;SDS011;37879;52.986;6.282;2022-07-22T04:01:45;3.83;;;1.80;;
51824;SDS011;37879;52.986;6.282;2022-07-22T04:04:11;4.47;;;1.88;;
51824;SDS011;37879;52.986;6.282;2022-07-22T04:06:37;3.80;;;1.60;;
51824;SDS011;37879;52.986;6.282;2022-07-22T04:09:03;4.80;;;2.15;;
51824;SDS011;37879;52.986;6.282;2022-07-22T04:11:30;4.70;;;1.45;;
51824;SDS011;37879;52.986;6.282;2022-07-22T04:13:56;7.45;;;1.70;;
51824;SDS011;37879;52.986;6.282;2022-07-22T04:16:22;3.70;;;1.63;;
51824;SDS011;37879;52.986;6.282;2022-07-22T04:18:48;5.65;;;1.55;;
51824;SDS011;37879;52.986;6.282;2022-07-22T04:21:14;4.07;;;1.77;;
51824;SDS011;37879;52.986;6.282;2022-07-22T04:23:40;3.63;;;2.15;;
51824;SDS011;37879;52.986;6.282;2022-07-22T04:26:06;4.68;;;1.45;;
51824;SDS011;37879;52.986;6.282;2022-07-22T04:28:33;3.33;;;1.40;;
51824;SDS011;37879;52.986;6.282;2022-07-22T04:31:01;5.18;;;1.67;;
51824;SDS011;37879;52.986;6.282;2022-07-22T04:33:27;7.93;;;1.95;;
51824;SDS011;37879;52.986;6.282;2022-07-22T04:35:53;3.85;;;1.67;;
51824;SDS011;37879;52.986;6.282;2022-07-22T04:38:19;3.20;;;1.70;;
51824;SDS011;37879;52.986;6.282;2022-07-22T04:40:45;6.15;;;1.58;;
51824;SDS011;37879;52.986;6.282;2022-07-22T04:43:11;4.72;;;1.92;;
51824;SDS011;37879;52.986;6.282;2022-07-22T04:45:37;4.60;;;1.80;;
51824;SDS011;37879;52.986;6.282;2022-07-22T04:48:03;5.22;;;1.95;;
51824;SDS011;37879;52.986;6.282;2022-07-22T04:50:30;11.50;;;3.33;;
51824;SDS011;37879;52.986;6.282;2022-07-22T04:52:56;3.38;;;1.60;;
51824;SDS011;37879;52.986;6.282;2022-07-22T04:55:22;5.10;;;1.83;;
51824;SDS011;37879;52.986;6.282;2022-07-22T04:57:48;5.93;;;1.77;;
51824;SDS011;37879;52.986;6.282;2022-07-22T05:00:14;7.70;;;2.13;;
51824;SDS011;37879;52.986;6.282;2022-07-22T05:02:42;5.57;;;1.65;;
51824;SDS011;37879;52.986;6.282;2022-07-22T05:05:08;11.60;;;2.97;;
51824;SDS011;37879;52.986;6.282;2022-07-22T05:07:34;4.10;;;1.77;;
51824;SDS011;37879;52.986;6.282;2022-07-22T05:10:00;5.78;;;1.83;;
51824;SDS011;37879;52.986;6.282;2022-07-22T05:12:26;6.75;;;2.20;;
51824;SDS011;37879;52.986;6.282;2022-07-22T05:14:52;6.32;;;1.50;;
51824;SDS011;37879;52.986;6.282;2022-07-22T05:17:18;9.77;;;2.17;;
51824;SDS011;37879;52.986;6.282;2022-07-22T05:19:45;2.97;;;1.30;;
51824;SDS011;37879;52.986;6.282;2022-07-22T05:22:11;6.30;;;2.05;;
51824;SDS011;37879;52.986;6.282;2022-07-22T05:24:37;7.03;;;1.65;;
51824;SDS011;37879;52.986;6.282;2022-07-22T05:27:03;3.63;;;1.40;;
51824;SDS011;37879;52.986;6.282;2022-07-22T05:29:29;5.32;;;1.55;;
51824;SDS011;37879;52.986;6.282;2022-07-22T05:31:55;6.05;;;2.10;;
51824;SDS011;37879;52.986;6.282;2022-07-22T05:34:22;7.35;;;2.03;;
51824;SDS011;37879;52.986;6.282;2022-07-22T05:36:48;3.72;;;1.77;;
51824;SDS011;37879;52.986;6.282;2022-07-22T05:39:14;7.10;;;1.73;;
51824;SDS011;37879;52.986;6.282;2022-07-22T05:41:40;4.72;;;1.50;;
51824;SDS011;37879;52.986;6.282;2022-07-22T05:44:06;5.50;;;1.90;;
51824;SDS011;37879;52.986;6.282;2022-07-22T05:46:32;6.88;;;1.58;;
51824;SDS011;37879;52.986;6.282;2022-07-22T05:48:59;5.53;;;1.85;;
51824;SDS011;37879;52.986;6.282;2022-07-22T05:51:25;4.28;;;1.42;;
51824;SDS011;37879;52.986;6.282;2022-07-22T05:53:51;5.57;;;2.45;;
51824;SDS011;37879;52.986;6.282;2022-07-22T05:56:17;4.90;;;1.38;;
51824;SDS011;37879;52.986;6.282;2022-07-22T05:58:43;6.78;;;1.60;;
51824;SDS011;37879;52.986;6.282;2022-07-22T06:01:10;3.58;;;1.88;;
51824;SDS011;37879;52.986;6.282;2022-07-22T06:03:36;6.55;;;1.77;;
51824;SDS011;37879;52.986;6.282;2022-07-22T06:06:02;6.55;;;1.80;;
51824;SDS011;37879;52.986;6.282;2022-07-22T06:08:29;5.30;;;2.30;;
51824;SDS011;37879;52.986;6.282;2022-07-22T06:10:56;5.50;;;1.63;;
51824;SDS011;37879;52.986;6.282;2022-07-22T06:13:23;5.20;;;1.58;;
51824;SDS011;37879;52.986;6.282;2022-07-22T06:15:49;4.10;;;1.58;;
51824;SDS011;37879;52.986;6.282;2022-07-22T06:18:15;3.33;;;1.45;;
51824;SDS011;37879;52.986;6.282;2022-07-22T06:20:41;2.92;;;1.40;;
51824;SDS011;37879;52.986;6.282;2022-07-22T06:23:07;6.30;;;1.45;;
51824;SDS011;37879;52.986;6.282;2022-07-22T06:25:33;4.50;;;1.52;;
51824;SDS011;37879;52.986;6.282;2022-07-22T06:28:00;8.05;;;1.70;;
51824;SDS011;37879;52.986;6.282;2022-07-22T06:30:26;3.63;;;1.73;;
51824;SDS011;37879;52.986;6.282;2022-07-22T06:32:52;4.18;;;1.73;;
51824;SDS011;37879;52.986;6.282;2022-07-22T06:35:18;5.68;;;1.70;;
51824;SDS011;37879;52.986;6.282;2022-07-22T06:37:44;5.18;;;2.55;;
51824;SDS011;37879;52.986;6.282;2022-07-22T06:40:11;6.53;;;1.80;;
51824;SDS011;37879;52.986;6.282;2022-07-22T06:42:37;6.07;;;2.08;;
51824;SDS011;37879;52.986;6.282;2022-07-22T06:45:04;3.97;;;2.05;;
51824;SDS011;37879;52.986;6.282;2022-07-22T06:47:30;7.85;;;1.63;;
51824;SDS011;37879;52.986;6.282;2022-07-22T06:50:00;8.15;;;2.05;;
51824;SDS011;37879;52.986;6.282;2022-07-22T06:52:26;2.78;;;1.25;;
51824;SDS011;37879;52.986;6.282;2022-07-22T06:54:53;2.97;;;1.42;;
51824;SDS011;37879;52.986;6.282;2022-07-22T06:57:19;3.80;;;1.70;;
51824;SDS011;37879;52.986;6.282;2022-07-22T06:59:45;4.95;;;1.48;;
51824;SDS011;37879;52.986;6.282;2022-07-22T07:02:11;6.43;;;1.63;;
51824;SDS011;37879;52.986;6.282;2022-07-22T07:04:37;4.47;;;1.95;;
51824;SDS011;37879;52.986;6.282;2022-07-22T07:07:03;4.20;;;1.33;;
51824;SDS011;37879;52.986;6.282;2022-07-22T07:09:29;4.88;;;1.63;;
51824;SDS011;37879;52.986;6.282;2022-07-22T07:11:55;5.78;;;1.55;;
51824;SDS011;37879;52.986;6.282;2022-07-22T07:14:21;2.80;;;1.20;;
51824;SDS011;37879;52.986;6.282;2022-07-22T07:16:48;4.47;;;1.23;;
51824;SDS011;37879;52.986;6.282;2022-07-22T07:19:14;2.35;;;1.30;;
51824;SDS011;37879;52.986;6.282;2022-07-22T07:21:40;4.32;;;1.40;;
51824;SDS011;37879;52.986;6.282;2022-07-22T07:24:06;3.67;;;1.33;;
51824;SDS011;37879;52.986;6.282;2022-07-22T07:26:32;3.75;;;2.10;;
51824;SDS011;37879;52.986;6.282;2022-07-22T07:28:58;6.35;;;1.52;;
51824;SDS011;37879;52.986;6.282;2022-07-22T07:31:24;6.18;;;1.10;;
51824;SDS011;37879;52.986;6.282;2022-07-22T07:33:50;4.40;;;1.75;;
51824;SDS011;37879;52.986;6.282;2022-07-22T07:36:16;5.95;;;1.63;;
51824;SDS011;37879;52.986;6.282;2022-07-22T07:38:43;4.53;;;1.10;;
51824;SDS011;37879;52.986;6.282;2022-07-22T07:41:09;4.30;;;1.00;;
51824;SDS011;37879;52.986;6.282;2022-07-22T07:43:35;3.78;;;1.25;;
51824;SDS011;37879;52.986;6.282;2022-07-22T07:46:01;2.92;;;1.30;;
51824;SDS011;37879;52.986;6.282;2022-07-22T07:48:27;4.70;;;1.20;;
51824;SDS011;37879;52.986;6.282;2022-07-22T07:50:53;3.45;;;1.40;;
51824;SDS011;37879;52.986;6.282;2022-07-22T07:53:19;4.70;;;1.63;;
51824;SDS011;37879;52.986;6.282;2022-07-22T07:55:46;4.68;;;1.65;;
51824;SDS011;37879;52.986;6.282;2022-07-22T07:58:12;4.22;;;1.40;;
51824;SDS011;37879;52.986;6.282;2022-07-22T08:00:38;3.83;;;1.38;;
51824;SDS011;37879;52.986;6.282;2022-07-22T08:03:06;4.25;;;1.60;;
51824;SDS011;37879;52.986;6.282;2022-07-22T08:05:32;2.63;;;1.05;;
51824;SDS011;37879;52.986;6.282;2022-07-22T08:07:58;6.47;;;1.20;;
51824;SDS011;37879;52.986;6.282;2022-07-22T08:10:25;6.20;;;1.23;;
51824;SDS011;37879;52.986;6.282;2022-07-22T08:12:52;5.50;;;1.38;;
51824;SDS011;37879;52.986;6.282;2022-07-22T08:15:19;3.38;;;1.30;;
51824;SDS011;37879;52.986;6.282;2022-07-22T08:17:48;3.58;;;1.33;;
51824;SDS011;37879;52.986;6.282;2022-07-22T08:20:14;5.28;;;1.30;;
51824;SDS011;37879;52.986;6.282;2022-07-22T08:22:41;2.60;;;1.13;;
51824;SDS011;37879;52.986;6.282;2022-07-22T08:25:07;3.67;;;1.02;;
51824;SDS011;37879;52.986;6.282;2022-07-22T08:27:33;1.77;;;0.90;;
51824;SDS011;37879;52.986;6.282;2022-07-22T08:29:59;3.90;;;1.10;;
51824;SDS011;37879;52.986;6.282;2022-07-22T08:32:29;4.13;;;1.10;;
51824;SDS011;37879;52.986;6.282;2022-07-22T08:34:55;3.38;;;1.02;;
51824;SDS011;37879;52.986;6.282;2022-07-22T08:37:22;7.05;;;1.30;;
51824;SDS011;37879;52.986;6.282;2022-07-22T08:39:48;4.38;;;1.00;;
51824;SDS011;37879;52.986;6.282;2022-07-22T08:42:14;4.53;;;0.82;;
51824;SDS011;37879;52.986;6.282;2022-07-22T08:44:41;2.92;;;1.20;;
51824;SDS011;37879;52.986;6.282;2022-07-22T08:47:07;3.80;;;1.00;;
51824;SDS011;37879;52.986;6.282;2022-07-22T08:49:33;3.05;;;1.20;;
51824;SDS011;37879;52.986;6.282;2022-07-22T08:51:59;5.55;;;1.38;;
51824;SDS011;37879;52.986;6.282;2022-07-22T08:54:26;3.28;;;1.50;;
51824;SDS011;37879;52.986;6.282;2022-07-22T08:56:55;3.22;;;1.13;;
51824;SDS011;37879;52.986;6.282;2022-07-22T08:59:21;3.05;;;1.00;;
51824;SDS011;37879;52.986;6.282;2022-07-22T09:05:02;4.47;;;1.17;;
51824;SDS011;37879;52.986;6.282;2022-07-22T09:07:30;2.88;;;0.95;;
51824;SDS011;37879;52.986;6.282;2022-07-22T09:09:57;4.57;;;1.50;;
51824;SDS011;37879;52.986;6.282;2022-07-22T09:12:24;7.22;;;0.85;;
51824;SDS011;37879;52.986;6.282;2022-07-22T09:14:54;4.53;;;0.60;;
51824;SDS011;37879;52.986;6.282;2022-07-22T09:19:50;1.73;;;0.70;;
51824;SDS011;37879;52.986;6.282;2022-07-22T09:22:32;3.13;;;0.63;;
51824;SDS011;37879;52.986;6.282;2022-07-22T09:24:59;2.55;;;0.50;;
51824;SDS011;37879;52.986;6.282;2022-07-22T09:27:43;2.58;;;0.50;;
51824;SDS011;37879;52.986;6.282;2022-07-22T09:30:19;1.42;;;0.75;;
51824;SDS011;37879;52.986;6.282;2022-07-22T09:32:46;2.13;;;0.60;;
51824;SDS011;37879;52.986;6.282;2022-07-22T09:35:12;2.10;;;0.77;;
51824;SDS011;37879;52.986;6.282;2022-07-22T09:40:18;1.85;;;0.60;;
51824;SDS011;37879;52.986;6.282;2022-07-22T09:42:46;3.22;;;0.73;;
51824;SDS011;37879;52.986;6.282;2022-07-22T09:45:12;2.38;;;0.60;;
51824;SDS011;37879;52.986;6.282;2022-07-22T09:47:42;5.57;;;1.52;;
51824;SDS011;37879;52.986;6.282;2022-07-22T09:50:32;5.18;;;0.70;;
51824;SDS011;37879;52.986;6.282;2022-07-22T09:52:55;2.67;;;0.77;;
51824;SDS011;37879;52.986;6.282;2022-07-22T09:55:22;2.60;;;0.60;;
51824;SDS011;37879;52.986;6.282;2022-07-22T09:57:49;2.72;;;1.00;;
51824;SDS011;37879;52.986;6.282;2022-07-22T10:00:17;3.40;;;0.88;;
51824;SDS011;37879;52.986;6.282;2022-07-22T10:02:57;2.55;;;0.80;;
51824;SDS011;37879;52.986;6.282;2022-07-22T10:05:25;2.10;;;0.70;;
51824;SDS011;37879;52.986;6.282;2022-07-22T10:07:52;2.72;;;0.82;;
51824;SDS011;37879;52.986;6.282;2022-07-22T10:10:19;3.88;;;0.90;;
51824;SDS011;37879;52.986;6.282;2022-07-22T10:12:49;3.63;;;1.13;;
51824;SDS011;37879;52.986;6.282;2022-07-22T10:15:16;3.15;;;0.60;;
51824;SDS011;37879;52.986;6.282;2022-07-22T10:17:44;4.03;;;0.50;;
51824;SDS011;37879;52.986;6.282;2022-07-22T10:20:11;2.72;;;0.80;;
51824;SDS011;37879;52.986;6.282;2022-07-22T10:25:07;2.80;;;0.57;;
51824;SDS011;37879;52.986;6.282;2022-07-22T10:30:20;2.10;;;0.63;;
51824;SDS011;37879;52.986;6.282;2022-07-22T10:35:33;1.57;;;0.40;;
51824;SDS011;37879;52.986;6.282;2022-07-22T10:38:02;3.85;;;0.80;;
51824;SDS011;37879;52.986;6.282;2022-07-22T10:40:29;3.90;;;0.85;;
51824;SDS011;37879;52.986;6.282;2022-07-22T10:48:07;1.90;;;0.50;;
51824;SDS011;37879;52.986;6.282;2022-07-22T10:53:01;2.28;;;0.70;;
51824;SDS011;37879;52.986;6.282;2022-07-22T10:55:27;3.55;;;0.60;;
51824;SDS011;37879;52.986;6.282;2022-07-22T10:57:54;2.05;;;0.50;;
51824;SDS011;37879;52.986;6.282;2022-07-22T11:00:20;2.97;;;0.57;;
51824;SDS011;37879;52.986;6.282;2022-07-22T11:02:46;1.33;;;0.60;;
51824;SDS011;37879;52.986;6.282;2022-07-22T11:05:13;2.10;;;0.80;;
51824;SDS011;37879;52.986;6.282;2022-07-22T11:07:43;1.30;;;0.57;;
51824;SDS011;37879;52.986;6.282;2022-07-22T11:10:10;2.30;;;0.52;;
51824;SDS011;37879;52.986;6.282;2022-07-22T11:12:36;1.17;;;0.70;;
51824;SDS011;37879;52.986;6.282;2022-07-22T11:15:03;1.45;;;0.55;;
51824;SDS011;37879;52.986;6.282;2022-07-22T11:17:31;0.93;;;0.50;;
51824;SDS011;37879;52.986;6.282;2022-07-22T11:20:00;5.85;;;0.90;;
51824;SDS011;37879;52.986;6.282;2022-07-22T11:22:26;2.40;;;0.70;;
51824;SDS011;37879;52.986;6.282;2022-07-22T11:24:52;1.60;;;0.75;;
51824;SDS011;37879;52.986;6.282;2022-07-22T11:27:19;5.60;;;1.02;;
51824;SDS011;37879;52.986;6.282;2022-07-22T11:29:47;2.17;;;0.80;;
51824;SDS011;37879;52.986;6.282;2022-07-22T11:32:14;2.17;;;0.50;;
51824;SDS011;37879;52.986;6.282;2022-07-22T11:34:41;2.08;;;0.60;;
51824;SDS011;37879;52.986;6.282;2022-07-22T11:37:10;1.25;;;0.47;;
51824;SDS011;37879;52.986;6.282;2022-07-22T11:39:36;1.33;;;0.50;;
51824;SDS011;37879;52.986;6.282;2022-07-22T11:42:02;4.30;;;0.52;;
51824;SDS011;37879;52.986;6.282;2022-07-22T11:44:29;2.53;;;0.65;;
51824;SDS011;37879;52.986;6.282;2022-07-22T11:46:56;3.00;;;0.93;;
51824;SDS011;37879;52.986;6.282;2022-07-22T11:49:26;2.00;;;0.65;;
51824;SDS011;37879;52.986;6.282;2022-07-22T11:51:52;1.75;;;0.80;;
51824;SDS011;37879;52.986;6.282;2022-07-22T11:54:19;0.98;;;0.60;;
51824;SDS011;37879;52.986;6.282;2022-07-22T11:56:45;2.33;;;0.70;;
51824;SDS011;37879;52.986;6.282;2022-07-22T11:59:12;2.05;;;0.65;;
51824;SDS011;37879;52.986;6.282;2022-07-22T12:01:39;1.00;;;0.50;;
51824;SDS011;37879;52.986;6.282;2022-07-22T12:04:09;1.58;;;0.50;;
51824;SDS011;37879;52.986;6.282;2022-07-22T12:06:36;0.40;;;0.30;;
51824;SDS011;37879;52.986;6.282;2022-07-22T12:11:59;6.28;;;0.77;;
51824;SDS011;37879;52.986;6.282;2022-07-22T12:14:26;1.52;;;0.45;;
51824;SDS011;37879;52.986;6.282;2022-07-22T12:19:22;1.35;;;0.40;;
51824;SDS011;37879;52.986;6.282;2022-07-22T12:24:16;1.50;;;0.50;;
51824;SDS011;37879;52.986;6.282;2022-07-22T12:26:43;1.13;;;0.40;;
51824;SDS011;37879;52.986;6.282;2022-07-22T12:29:14;0.30;;;0.20;;
51824;SDS011;37879;52.986;6.282;2022-07-22T12:31:41;3.50;;;0.50;;
51824;SDS011;37879;52.986;6.282;2022-07-22T12:34:07;2.00;;;0.50;;
51824;SDS011;37879;52.986;6.282;2022-07-22T12:36:34;3.58;;;1.15;;
51824;SDS011;37879;52.986;6.282;2022-07-22T12:39:10;2.92;;;0.50;;
51824;SDS011;37879;52.986;6.282;2022-07-22T12:41:43;1.60;;;0.50;;
51824;SDS011;37879;52.986;6.282;2022-07-22T12:44:20;1.45;;;0.60;;
51824;SDS011;37879;52.986;6.282;2022-07-22T12:46:48;1.42;;;0.30;;
51824;SDS011;37879;52.986;6.282;2022-07-22T12:49:15;1.42;;;0.55;;
51824;SDS011;37879;52.986;6.282;2022-07-22T12:51:42;1.42;;;0.40;;
51824;SDS011;37879;52.986;6.282;2022-07-22T12:54:28;2.55;;;0.70;;
51824;SDS011;37879;52.986;6.282;2022-07-22T12:56:54;1.00;;;0.50;;
51824;SDS011;37879;52.986;6.282;2022-07-22T12:59:20;1.65;;;0.40;;
51824;SDS011;37879;52.986;6.282;2022-07-22T13:01:47;0.70;;;0.30;;
51824;SDS011;37879;52.986;6.282;2022-07-22T13:04:14;0.90;;;0.20;;
51824;SDS011;37879;52.986;6.282;2022-07-22T13:06:40;1.00;;;0.35;;
51824;SDS011;37879;52.986;6.282;2022-07-22T13:09:06;1.15;;;0.40;;
51824;SDS011;37879;52.986;6.282;2022-07-22T13:11:32;0.88;;;0.40;;
51824;SDS011;37879;52.986;6.282;2022-07-22T13:14:04;1.00;;;0.40;;
51824;SDS011;37879;52.986;6.282;2022-07-22T13:16:31;1.45;;;0.40;;
51824;SDS011;37879;52.986;6.282;2022-07-22T13:18:57;1.55;;;0.60;;
51824;SDS011;37879;52.986;6.282;2022-07-22T13:21:23;2.13;;;0.55;;
51824;SDS011;37879;52.986;6.282;2022-07-22T13:23:49;2.30;;;0.50;;
51824;SDS011;37879;52.986;6.282;2022-07-22T13:26:15;2.72;;;0.60;;
51824;SDS011;37879;52.986;6.282;2022-07-22T13:28:41;1.60;;;0.50;;
51824;SDS011;37879;52.986;6.282;2022-07-22T13:31:08;0.77;;;0.40;;
51824;SDS011;37879;52.986;6.282;2022-07-22T13:33:34;1.85;;;0.47;;
51824;SDS011;37879;52.986;6.282;2022-07-22T13:36:01;2.30;;;0.55;;
51824;SDS011;37879;52.986;6.282;2022-07-22T13:38:27;2.38;;;0.90;;
51824;SDS011;37879;52.986;6.282;2022-07-22T13:40:53;2.83;;;0.68;;
51824;SDS011;37879;52.986;6.282;2022-07-22T13:43:20;1.60;;;0.43;;
51824;SDS011;37879;52.986;6.282;2022-07-22T13:45:47;2.55;;;0.50;;
51824;SDS011;37879;52.986;6.282;2022-07-22T13:48:13;2.00;;;0.60;;
51824;SDS011;37879;52.986;6.282;2022-07-22T13:50:39;2.50;;;0.75;;
51824;SDS011;37879;52.986;6.282;2022-07-22T13:53:05;1.38;;;0.50;;
51824;SDS011;37879;52.986;6.282;2022-07-22T13:55:32;1.55;;;0.65;;
51824;SDS011;37879;52.986;6.282;2022-07-22T13:57:58;2.15;;;0.40;;
51824;SDS011;37879;52.986;6.282;2022-07-22T14:00:24;1.73;;;0.52;;
51824;SDS011;37879;52.986;6.282;2022-07-22T14:02:50;0.93;;;0.60;;
51824;SDS011;37879;52.986;6.282;2022-07-22T14:05:17;1.83;;;0.60;;
51824;SDS011;37879;52.986;6.282;2022-07-22T14:07:43;2.28;;;0.52;;
51824;SDS011;37879;52.986;6.282;2022-07-22T14:10:10;2.03;;;0.93;;
51824;SDS011;37879;52.986;6.282;2022-07-22T14:12:36;1.83;;;0.80;;
51824;SDS011;37879;52.986;6.282;2022-07-22T14:15:03;1.48;;;0.88;;
51824;SDS011;37879;52.986;6.282;2022-07-22T14:17:29;2.05;;;0.80;;
51824;SDS011;37879;52.986;6.282;2022-07-22T14:19:55;1.17;;;0.60;;
51824;SDS011;37879;52.986;6.282;2022-07-22T14:22:21;1.40;;;0.70;;
51824;SDS011;37879;52.986;6.282;2022-07-22T14:24:47;2.40;;;0.60;;
51824;SDS011;37879;52.986;6.282;2022-07-22T14:27:13;2.17;;;1.02;;
51824;SDS011;37879;52.986;6.282;2022-07-22T14:29:39;2.50;;;0.80;;
51824;SDS011;37879;52.986;6.282;2022-07-22T14:32:06;1.20;;;0.70;;
51824;SDS011;37879;52.986;6.282;2022-07-22T14:34:32;2.97;;;0.82;;
51824;SDS011;37879;52.986;6.282;2022-07-22T14:36:58;2.10;;;0.38;;
51824;SDS011;37879;52.986;6.282;2022-07-22T14:39:24;1.05;;;0.70;;
51824;SDS011;37879;52.986;6.282;2022-07-22T14:41:50;2.70;;;0.50;;
51824;SDS011;37879;52.986;6.282;2022-07-22T14:44:16;2.35;;;0.98;;
51824;SDS011;37879;52.986;6.282;2022-07-22T14:46:42;1.92;;;0.95;;
51824;SDS011;37879;52.986;6.282;2022-07-22T14:49:08;2.90;;;0.82;;
51824;SDS011;37879;52.986;6.282;2022-07-22T14:51:35;3.50;;;0.73;;
51824;SDS011;37879;52.986;6.282;2022-07-22T14:54:01;2.97;;;0.70;;
51824;SDS011;37879;52.986;6.282;2022-07-22T14:56:27;2.20;;;0.60;;
51824;SDS011;37879;52.986;6.282;2022-07-22T14:58:53;3.17;;;0.65;;
51824;SDS011;37879;52.986;6.282;2022-07-22T15:01:19;1.58;;;0.50;;
51824;SDS011;37879;52.986;6.282;2022-07-22T15:03:45;2.35;;;1.00;;
51824;SDS011;37879;52.986;6.282;2022-07-22T15:06:12;3.42;;;0.80;;
51824;SDS011;37879;52.986;6.282;2022-07-22T15:08:41;2.45;;;0.73;;
51824;SDS011;37879;52.986;6.282;2022-07-22T15:11:10;2.00;;;0.85;;
51824;SDS011;37879;52.986;6.282;2022-07-22T15:13:39;3.00;;;0.95;;
51824;SDS011;37879;52.986;6.282;2022-07-22T15:16:06;2.13;;;0.93;;